createdAt,value
2023-03-25T00:00:43.986Z,56.87
2023-03-25T00:06:57.358Z,57.41
2023-03-25T00:13:04.139Z,57.47
2023-03-25T00:19:05.944Z,57.36
2023-03-25T00:25:18.330Z,56.59
2023-03-25T00:31:19.926Z,56.32
2023-03-25T00:37:22.088Z,55.89
2023-03-25T00:43:23.587Z,55.72
2023-03-25T00:49:27.905Z,55.78
2023-03-25T00:55:29.471Z,56.02
2023-03-25T01:01:31.011Z,55.38
2023-03-25T01:07:32.774Z,55.35
2023-03-25T01:13:34.743Z,55.44
2023-03-25T01:19:36.359Z,55.74
2023-03-25T01:25:37.999Z,55.61
2023-03-25T01:31:40.470Z,55.74
2023-03-25T01:37:43.844Z,55.94
2023-03-25T01:44:05.891Z,55.98
2023-03-25T01:50:14.059Z,56.31
2023-03-25T01:56:19.442Z,57.40
2023-03-25T02:02:24.429Z,57.67
2023-03-25T02:08:26.178Z,57.71
2023-03-25T02:14:30.263Z,58.01
2023-03-25T02:20:40.976Z,57.35
2023-03-25T02:27:26.672Z,56.94
2023-03-25T02:33:44.997Z,56.31
2023-03-25T02:40:06.420Z,56.91
2023-03-25T02:46:11.554Z,57.33
2023-03-25T02:52:37.433Z,56.91
2023-03-25T02:58:39.718Z,56.99
2023-03-25T03:04:50.981Z,56.97
2023-03-25T03:11:01.964Z,57.30
2023-03-25T03:17:12.847Z,57.93
2023-03-25T03:23:53.985Z,59.21
2023-03-25T03:30:18.316Z,60.50
2023-03-25T03:36:23.609Z,61.94
2023-03-25T03:42:38.345Z,61.55
2023-03-25T03:48:43.638Z,61.36
2023-03-25T03:54:49.001Z,60.85
2023-03-25T04:00:53.852Z,60.23
2023-03-25T04:07:06.595Z,59.85
2023-03-25T04:13:11.128Z,58.67
2023-03-25T04:19:18.996Z,56.84
2023-03-25T04:25:24.731Z,55.20
2023-03-25T04:31:30.646Z,54.45
2023-03-25T04:37:36.352Z,54.16
2023-03-25T04:43:38.655Z,54.45
2023-03-25T04:49:44.222Z,54.51
2023-03-25T04:55:48.751Z,54.34
2023-03-25T05:01:52.037Z,54.61
2023-03-25T05:07:54.735Z,54.91
2023-03-25T05:13:56.389Z,54.99
2023-03-25T05:19:57.950Z,54.56
2023-03-25T05:26:02.285Z,54.78
2023-03-25T05:32:04.091Z,54.68
2023-03-25T05:38:07.980Z,54.62
2023-03-25T05:44:14.102Z,54.50
2023-03-25T05:50:16.165Z,55.22
2023-03-25T05:56:19.487Z,55.70
2023-03-25T06:02:21.468Z,55.78
2023-03-25T06:08:27.375Z,55.89
2023-03-25T06:14:31.879Z,56.16
2023-03-25T06:20:33.837Z,55.56
2023-03-25T06:26:35.513Z,55.09
2023-03-25T06:32:37.747Z,54.69
2023-03-25T06:38:39.841Z,54.47
2023-03-25T06:44:46.560Z,53.52
2023-03-25T06:51:08.626Z,53.32
2023-03-25T06:57:10.297Z,53.16
2023-03-25T07:03:12.597Z,53.30
2023-03-25T07:09:14.877Z,53.31
2023-03-25T07:15:16.481Z,52.93
2023-03-25T07:21:19.076Z,52.72
2023-03-25T07:27:20.566Z,52.91
2023-03-25T07:33:30.429Z,53.94
2023-03-25T07:39:31.902Z,53.67
2023-03-25T07:45:44.615Z,53.36
2023-03-25T07:51:46.425Z,53.50
2023-03-25T07:57:47.959Z,53.50
2023-03-25T08:03:49.599Z,53.72
2023-03-25T08:09:51.288Z,53.82
2023-03-25T08:15:53.439Z,53.72
2023-03-25T08:21:55.386Z,53.70
2023-03-25T08:27:57.127Z,53.36
2023-03-25T08:34:00.258Z,53.06
2023-03-25T08:40:06.912Z,52.59
2023-03-25T08:46:08.545Z,52.41
2023-03-25T08:52:10.180Z,50.79
2023-03-25T08:58:11.743Z,49.09
2023-03-25T09:04:13.411Z,48.02
2023-03-25T09:10:15.271Z,47.52
2023-03-25T09:16:17.149Z,45.63
2023-03-25T09:22:18.695Z,44.79
2023-03-25T09:28:20.401Z,44.97
2023-03-25T09:34:22.035Z,44.65
2023-03-25T09:40:24.061Z,43.25
2023-03-25T09:46:26.032Z,42.74
2023-03-25T09:52:35.201Z,42.56
2023-03-25T09:58:43.939Z,42.28
2023-03-25T10:05:17.859Z,42.49
2023-03-25T10:11:49.325Z,42.23
2023-03-25T10:18:14.149Z,42.66
2023-03-25T10:24:25.017Z,42.90
2023-03-25T10:30:50.882Z,42.18
2023-03-25T10:36:57.506Z,41.09
2023-03-25T10:43:14.263Z,41.20
2023-03-25T10:49:21.496Z,41.75
2023-03-25T10:55:25.918Z,41.43
2023-03-25T11:01:46.232Z,40.57
2023-03-25T11:07:50.952Z,40.04
2023-03-25T11:13:56.614Z,40.63
2023-03-25T11:20:07.221Z,41.01
2023-03-25T11:26:29.769Z,41.88
2023-03-25T11:32:39.052Z,42.63
2023-03-25T11:38:40.973Z,41.08
2023-03-25T11:44:49.795Z,40.14
2023-03-25T11:50:57.480Z,39.31
2023-03-25T11:56:59.160Z,37.78
2023-03-25T12:03:02.643Z,37.34
2023-03-25T12:09:09.025Z,38.75
2023-03-25T12:15:38.055Z,42.12
2023-03-25T12:22:09.094Z,45.26
2023-03-25T12:28:55.937Z,46.77
2023-03-25T12:35:14.668Z,46.74
2023-03-25T12:41:31.018Z,44.07
2023-03-25T12:47:32.469Z,43.03
2023-03-25T12:53:52.754Z,42.87
2023-03-25T13:00:14.375Z,44.85
2023-03-25T13:06:43.432Z,43.45
2023-03-25T13:12:53.346Z,42.19
2023-03-25T13:19:13.493Z,42.20
2023-03-25T13:25:25.007Z,41.93
2023-03-25T13:31:35.479Z,41.08
2023-03-25T13:37:46.235Z,40.05
2023-03-25T13:43:55.456Z,39.33
2023-03-25T13:50:03.129Z,39.40
2023-03-25T13:56:40.930Z,40.35
2023-03-25T14:03:11.948Z,41.27
2023-03-25T14:09:48.690Z,41.68
2023-03-25T14:15:59.355Z,41.57
2023-03-25T14:22:07.723Z,42.21
2023-03-25T14:28:16.113Z,42.76
2023-03-25T14:34:25.518Z,42.45
2023-03-25T14:41:02.229Z,41.58
2023-03-25T14:47:15.375Z,40.82
2023-03-25T14:53:18.029Z,40.27
2023-03-25T14:59:26.413Z,40.49
2023-03-25T15:05:29.445Z,40.68
2023-03-25T15:11:35.619Z,40.83
2023-03-25T15:17:48.522Z,41.14
2023-03-25T15:23:59.636Z,40.83
2023-03-25T15:30:32.796Z,39.88
2023-03-25T15:36:52.991Z,39.17
2023-03-25T15:43:05.391Z,39.32
2023-03-25T15:49:38.111Z,38.77
2023-03-25T15:55:45.839Z,38.51
2023-03-25T16:01:49.137Z,39.50
2023-03-25T16:07:51.040Z,41.35
2023-03-25T16:14:07.767Z,42.00
2023-03-25T16:20:14.821Z,42.44
2023-03-25T16:26:37.548Z,42.42
2023-03-25T16:32:39.044Z,42.43
2023-03-25T16:38:40.958Z,42.19
2023-03-25T16:44:42.718Z,41.98
2023-03-25T16:50:45.197Z,42.08
2023-03-25T16:57:09.633Z,42.91
2023-03-25T17:03:41.982Z,43.77
2023-03-25T17:09:50.057Z,44.64
2023-03-25T17:15:56.110Z,45.56
2023-03-25T17:22:31.602Z,46.03
2023-03-25T17:28:42.613Z,46.14
2023-03-25T17:34:55.195Z,46.70
2023-03-25T17:41:05.779Z,46.69
2023-03-25T17:47:12.944Z,46.41
2023-03-25T17:53:14.478Z,47.17
2023-03-25T17:59:18.659Z,47.46
2023-03-25T18:05:20.577Z,47.79
2023-03-25T18:11:25.093Z,48.23
2023-03-25T18:17:26.614Z,48.61
2023-03-25T18:23:28.292Z,48.37
2023-03-25T18:29:30.529Z,48.46
2023-03-25T18:35:33.326Z,48.27
2023-03-25T18:41:34.983Z,48.36
2023-03-25T18:47:37.738Z,48.15
2023-03-25T18:53:40.209Z,48.03
2023-03-25T18:59:41.809Z,47.94
2023-03-25T19:05:44.607Z,47.72
2023-03-25T19:11:46.693Z,48.32
2023-03-25T19:17:48.643Z,48.92
2023-03-25T19:23:51.449Z,49.56
2023-03-25T19:29:55.266Z,49.94
2023-03-25T19:36:00.429Z,49.42
2023-03-25T19:42:03.600Z,49.23
2023-03-25T19:48:05.337Z,49.18
2023-03-25T19:54:09.261Z,49.34
2023-03-25T20:00:16.862Z,49.38
2023-03-25T20:06:19.162Z,50.30
2023-03-25T20:12:21.112Z,50.04
2023-03-25T20:18:24.423Z,50.15
2023-03-25T20:24:26.141Z,50.61
2023-03-25T20:30:43.480Z,50.94
2023-03-25T20:36:55.877Z,51.10
2023-03-25T20:42:58.289Z,51.25
2023-03-25T20:49:02.649Z,51.61
2023-03-25T20:55:05.156Z,51.96
2023-03-25T21:01:08.523Z,52.26
2023-03-25T21:07:11.231Z,52.64
2023-03-25T21:13:14.167Z,52.28
2023-03-25T21:19:15.859Z,52.25
2023-03-25T21:25:20.433Z,51.67
2023-03-25T21:31:24.931Z,50.48
2023-03-25T21:37:29.147Z,49.36
2023-03-25T21:43:35.124Z,48.84
2023-03-25T21:49:37.597Z,48.83
2023-03-25T21:55:39.272Z,48.68
2023-03-25T22:01:41.053Z,48.65
2023-03-25T22:07:43.028Z,48.64
2023-03-25T22:13:45.165Z,48.33
2023-03-25T22:19:50.431Z,48.43
2023-03-25T22:25:52.107Z,48.92
2023-03-25T22:31:55.134Z,48.41
2023-03-25T22:37:56.672Z,48.38
2023-03-25T22:43:58.512Z,48.42
2023-03-25T22:50:00.329Z,48.88
2023-03-25T22:56:02.946Z,49.16
2023-03-25T23:02:04.804Z,48.11
2023-03-25T23:08:06.879Z,47.31
2023-03-25T23:14:11.461Z,47.60
2023-03-25T23:20:13.015Z,48.32
2023-03-25T23:26:20.990Z,49.14
2023-03-25T23:32:23.018Z,49.82
2023-03-25T23:38:24.571Z,49.88
2023-03-25T23:44:26.767Z,49.95
2023-03-25T23:50:28.304Z,49.94
2023-03-25T23:56:30.691Z,49.83
